sensor_id;sensor_type;location;lat;lon;timestamp;pressure;altitude;pressure_sealevel;temperature;humidity
29169;BME280;16219;42.864;23.360;2022-07-23T00:01:50;96129.06;;;19.10;100.00
29169;BME280;16219;42.864;23.360;2022-07-23T00:04:19;96135.06;;;19.03;100.00
29169;BME280;16219;42.864;23.360;2022-07-23T00:06:46;96133.34;;;18.91;100.00
29169;BME280;16219;42.864;23.360;2022-07-23T00:09:13;96134.75;;;18.85;100.00
29169;BME280;16219;42.864;23.360;2022-07-23T00:11:40;96134.16;;;18.95;100.00
29169;BME280;16219;42.864;23.360;2022-07-23T00:14:07;96141.06;;;18.96;100.00
29169;BME280;16219;42.864;23.360;2022-07-23T00:16:34;96133.34;;;18.91;100.00
29169;BME280;16219;42.864;23.360;2022-07-23T00:19:01;96140.28;;;18.96;100.00
29169;BME280;16219;42.864;23.360;2022-07-23T00:21:30;96136.88;;;18.76;100.00
29169;BME280;16219;42.864;23.360;2022-07-23T00:23:58;96108.31;;;18.61;100.00
29169;BME280;16219;42.864;23.360;2022-07-23T00:26:25;96116.97;;;18.73;100.00
29169;BME280;16219;42.864;23.360;2022-07-23T00:28:52;96136.94;;;18.80;100.00
29169;BME280;16219;42.864;23.360;2022-07-23T00:31:19;96123.09;;;18.74;100.00
29169;BME280;16219;42.864;23.360;2022-07-23T00:33:46;96125.47;;;18.79;100.00
29169;BME280;16219;42.864;23.360;2022-07-23T00:36:13;96133.13;;;18.81;100.00
29169;BME280;16219;42.864;23.360;2022-07-23T00:38:42;96134.19;;;18.76;100.00
29169;BME280;16219;42.864;23.360;2022-07-23T00:41:09;96092.31;;;18.41;100.00
29169;BME280;16219;42.864;23.360;2022-07-23T00:43:36;96125.91;;;18.62;100.00
29169;BME280;16219;42.864;23.360;2022-07-23T00:46:03;96126.88;;;18.54;100.00
29169;BME280;16219;42.864;23.360;2022-07-23T00:48:30;96128.72;;;18.49;100.00
29169;BME280;16219;42.864;23.360;2022-07-23T00:50:58;96132.63;;;18.56;100.00
29169;BME280;16219;42.864;23.360;2022-07-23T00:53:25;96125.75;;;18.55;100.00
29169;BME280;16219;42.864;23.360;2022-07-23T00:55:54;96126.44;;;18.52;100.00
29169;BME280;16219;42.864;23.360;2022-07-23T00:58:21;96128.72;;;18.49;100.00
29169;BME280;16219;42.864;23.360;2022-07-23T01:00:49;96137.88;;;18.48;100.00
29169;BME280;16219;42.864;23.360;2022-07-23T01:03:16;96132.44;;;18.45;100.00
29169;BME280;16219;42.864;23.360;2022-07-23T01:05:44;96135.41;;;18.40;100.00
29169;BME280;16219;42.864;23.360;2022-07-23T01:08:12;96136.03;;;18.33;100.00
29169;BME280;16219;42.864;23.360;2022-07-23T01:10:40;96141.38;;;18.33;100.00
29169;BME280;16219;42.864;23.360;2022-07-23T01:13:09;96141.81;;;18.35;100.00
29169;BME280;16219;42.864;23.360;2022-07-23T01:15:38;96144.03;;;18.33;100.00
29169;BME280;16219;42.864;23.360;2022-07-23T01:18:07;96150.50;;;18.32;100.00
29169;BME280;16219;42.864;23.360;2022-07-23T01:20:36;96146.06;;;18.20;100.00
29169;BME280;16219;42.864;23.360;2022-07-23T01:23:04;96137.06;;;18.09;100.00
29169;BME280;16219;42.864;23.360;2022-07-23T01:25:33;96143.69;;;18.15;100.00
29169;BME280;16219;42.864;23.360;2022-07-23T01:28:02;96139.53;;;18.18;100.00
29169;BME280;16219;42.864;23.360;2022-07-23T01:30:29;96140.25;;;18.15;100.00
29169;BME280;16219;42.864;23.360;2022-07-23T01:32:58;96141.63;;;18.09;100.00
29169;BME280;16219;42.864;23.360;2022-07-23T01:35:26;96141.22;;;18.07;100.00
29169;BME280;16219;42.864;23.360;2022-07-23T01:37:57;96135.78;;;18.03;100.00
29169;BME280;16219;42.864;23.360;2022-07-23T01:40:26;96121.78;;;17.90;100.00
29169;BME280;16219;42.864;23.360;2022-07-23T01:42:54;96120.66;;;17.91;100.00
29169;BME280;16219;42.864;23.360;2022-07-23T01:45:22;96138.59;;;17.91;100.00
29169;BME280;16219;42.864;23.360;2022-07-23T01:47:51;96128.53;;;17.84;100.00
29169;BME280;16219;42.864;23.360;2022-07-23T01:50:18;96136.59;;;17.88;100.00
29169;BME280;16219;42.864;23.360;2022-07-23T01:53:04;96136.59;;;17.88;100.00
29169;BME280;16219;42.864;23.360;2022-07-23T01:55:36;96137.41;;;17.88;100.00
29169;BME280;16219;42.864;23.360;2022-07-23T01:58:05;96136.97;;;17.86;100.00
29169;BME280;16219;42.864;23.360;2022-07-23T02:00:33;96139.47;;;17.79;100.00
29169;BME280;16219;42.864;23.360;2022-07-23T02:03:00;96140.59;;;17.78;100.00
29169;BME280;16219;42.864;23.360;2022-07-23T02:05:28;96134.06;;;17.76;100.00
29169;BME280;16219;42.864;23.360;2022-07-23T02:07:56;96138.63;;;17.75;100.00
29169;BME280;16219;42.864;23.360;2022-07-23T02:10:23;96122.19;;;17.57;100.00
29169;BME280;16219;42.864;23.360;2022-07-23T02:12:52;96142.22;;;17.67;100.00
29169;BME280;16219;42.864;23.360;2022-07-23T02:15:19;96146.53;;;17.71;100.00
29169;BME280;16219;42.864;23.360;2022-07-23T02:17:47;96144.06;;;17.63;100.00
29169;BME280;16219;42.864;23.360;2022-07-23T02:20:14;96139.66;;;17.55;100.00
29169;BME280;16219;42.864;23.360;2022-07-23T02:22:44;96142.34;;;17.55;100.00
29169;BME280;16219;42.864;23.360;2022-07-23T02:25:11;96145.97;;;17.46;100.00
29169;BME280;16219;42.864;23.360;2022-07-23T02:27:38;96137.31;;;17.53;100.00
29169;BME280;16219;42.864;23.360;2022-07-23T02:30:08;96147.91;;;17.49;100.00
29169;BME280;16219;42.864;23.360;2022-07-23T02:32:36;96107.25;;;17.21;100.00
29169;BME280;16219;42.864;23.360;2022-07-23T02:35:05;96143.09;;;17.39;100.00
29169;BME280;16219;42.864;23.360;2022-07-23T02:37:32;96102.69;;;17.06;100.00
29169;BME280;16219;42.864;23.360;2022-07-23T02:39:59;96156.81;;;17.38;100.00
29169;BME280;16219;42.864;23.360;2022-07-23T02:42:27;96147.94;;;17.18;100.00
29169;BME280;16219;42.864;23.360;2022-07-23T02:44:55;96156.88;;;17.26;100.00
29169;BME280;16219;42.864;23.360;2022-07-23T02:47:23;96153.44;;;17.25;100.00
29169;BME280;16219;42.864;23.360;2022-07-23T02:49:50;96160.75;;;17.28;100.00
29169;BME280;16219;42.864;23.360;2022-07-23T02:52:18;96158.84;;;17.29;100.00
29169;BME280;16219;42.864;23.360;2022-07-23T02:54:45;96161.19;;;17.30;100.00
29169;BME280;16219;42.864;23.360;2022-07-23T02:57:15;96159.97;;;17.28;100.00
29169;BME280;16219;42.864;23.360;2022-07-23T02:59:42;96169.19;;;17.30;100.00
29169;BME280;16219;42.864;23.360;2022-07-23T03:02:09;96170.72;;;17.31;100.00
29169;BME280;16219;42.864;23.360;2022-07-23T03:04:39;96166.06;;;17.28;100.00
29169;BME280;16219;42.864;23.360;2022-07-23T03:07:07;96164.19;;;17.29;100.00
29169;BME280;16219;42.864;23.360;2022-07-23T03:09:35;96165.56;;;17.22;100.00
29169;BME280;16219;42.864;23.360;2022-07-23T03:12:02;96175.47;;;17.22;100.00
29169;BME280;16219;42.864;23.360;2022-07-23T03:14:30;96170.28;;;17.13;100.00
29169;BME280;16219;42.864;23.360;2022-07-23T03:16:57;96157.63;;;16.94;100.00
29169;BME280;16219;42.864;23.360;2022-07-23T03:19:25;96152.06;;;16.99;100.00
29169;BME280;16219;42.864;23.360;2022-07-23T03:21:54;96175.63;;;17.13;100.00
29169;BME280;16219;42.864;23.360;2022-07-23T03:24:21;96183.94;;;17.12;100.00
29169;BME280;16219;42.864;23.360;2022-07-23T03:26:49;96171.31;;;17.09;100.00
29169;BME280;16219;42.864;23.360;2022-07-23T03:29:16;96175.09;;;17.08;100.00
29169;BME280;16219;42.864;23.360;2022-07-23T03:31:44;96176.56;;;17.05;100.00
29169;BME280;16219;42.864;23.360;2022-07-23T03:34:11;96181.88;;;17.05;100.00
29169;BME280;16219;42.864;23.360;2022-07-23T03:36:38;96181.22;;;17.08;100.00
29169;BME280;16219;42.864;23.360;2022-07-23T03:39:07;96179.06;;;17.14;100.00
29169;BME280;16219;42.864;23.360;2022-07-23T03:41:35;96182.59;;;17.18;100.00
29169;BME280;16219;42.864;23.360;2022-07-23T03:44:02;96183.88;;;17.24;100.00
29169;BME280;16219;42.864;23.360;2022-07-23T03:46:29;96157.28;;;17.12;100.00
29169;BME280;16219;42.864;23.360;2022-07-23T03:48:56;96182.44;;;17.27;100.00
29169;BME280;16219;42.864;23.360;2022-07-23T03:51:24;96175.19;;;17.27;100.00
29169;BME280;16219;42.864;23.360;2022-07-23T03:53:51;96184.16;;;17.35;100.00
29169;BME280;16219;42.864;23.360;2022-07-23T03:56:19;96184.41;;;17.45;100.00
29169;BME280;16219;42.864;23.360;2022-07-23T03:58:46;96187.69;;;17.39;100.00
29169;BME280;16219;42.864;23.360;2022-07-23T04:01:13;96190.34;;;17.39;100.00
29169;BME280;16219;42.864;23.360;2022-07-23T04:03:40;96191.72;;;17.48;100.00
29169;BME280;16219;42.864;23.360;2022-07-23T04:06:07;96187.34;;;17.56;100.00
29169;BME280;16219;42.864;23.360;2022-07-23T04:08:36;96185.63;;;17.64;100.00
29169;BME280;16219;42.864;23.360;2022-07-23T04:11:03;96194.13;;;17.69;100.00
29169;BME280;16219;42.864;23.360;2022-07-23T04:13:32;96193.00;;;17.86;100.00
29169;BME280;16219;42.864;23.360;2022-07-23T04:16:00;96172.78;;;17.85;100.00
29169;BME280;16219;42.864;23.360;2022-07-23T04:18:28;96173.94;;;18.04;100.00
29169;BME280;16219;42.864;23.360;2022-07-23T04:21:14;96190.28;;;18.37;100.00
29169;BME280;16219;42.864;23.360;2022-07-23T04:23:41;96193.16;;;19.06;100.00
29169;BME280;16219;42.864;23.360;2022-07-23T04:26:09;96196.84;;;20.16;100.00
29169;BME280;16219;42.864;23.360;2022-07-23T04:28:37;96193.81;;;21.12;100.00
29169;BME280;16219;42.864;23.360;2022-07-23T04:31:05;96184.22;;;22.07;100.00
29169;BME280;16219;42.864;23.360;2022-07-23T04:33:34;96201.19;;;22.94;100.00
29169;BME280;16219;42.864;23.360;2022-07-23T04:36:05;96188.97;;;23.54;100.00
29169;BME280;16219;42.864;23.360;2022-07-23T04:38:32;96207.00;;;24.32;99.01
29169;BME280;16219;42.864;23.360;2022-07-23T04:41:02;96203.00;;;24.80;92.43
29169;BME280;16219;42.864;23.360;2022-07-23T04:43:29;96212.72;;;25.40;86.69
29169;BME280;16219;42.864;23.360;2022-07-23T04:45:58;96214.72;;;25.84;78.44
29169;BME280;16219;42.864;23.360;2022-07-23T04:48:25;96218.66;;;26.21;72.78
29169;BME280;16219;42.864;23.360;2022-07-23T04:50:59;96208.59;;;26.59;69.10
29169;BME280;16219;42.864;23.360;2022-07-23T04:53:29;96198.16;;;26.88;65.78
29169;BME280;16219;42.864;23.360;2022-07-23T04:55:59;96210.59;;;27.16;61.85
29169;BME280;16219;42.864;23.360;2022-07-23T04:58:28;96212.06;;;27.48;60.59
29169;BME280;16219;42.864;23.360;2022-07-23T05:00:59;96213.34;;;27.90;59.10
29169;BME280;16219;42.864;23.360;2022-07-23T05:03:28;96206.94;;;28.04;55.12
29169;BME280;16219;42.864;23.360;2022-07-23T05:05:56;96211.31;;;28.42;54.32
29169;BME280;16219;42.864;23.360;2022-07-23T05:08:23;96201.94;;;28.66;52.88
29169;BME280;16219;42.864;23.360;2022-07-23T05:10:53;96205.44;;;28.47;51.61
29169;BME280;16219;42.864;23.360;2022-07-23T05:13:21;96191.22;;;28.15;52.21
29169;BME280;16219;42.864;23.360;2022-07-23T05:15:51;96188.81;;;28.21;52.38
29169;BME280;16219;42.864;23.360;2022-07-23T05:18:19;96195.88;;;28.15;51.77
29169;BME280;16219;42.864;23.360;2022-07-23T05:20:47;96200.38;;;28.02;51.37
29169;BME280;16219;42.864;23.360;2022-07-23T05:23:18;96150.53;;;26.95;54.96
29169;BME280;16219;42.864;23.360;2022-07-23T05:25:47;96204.91;;;26.42;59.41
29169;BME280;16219;42.864;23.360;2022-07-23T05:28:15;96210.38;;;25.46;66.63
29169;BME280;16219;42.864;23.360;2022-07-23T05:30:43;96201.84;;;24.81;77.88
29169;BME280;16219;42.864;23.360;2022-07-23T05:33:13;96207.38;;;24.34;82.49
29169;BME280;16219;42.864;23.360;2022-07-23T05:35:42;96210.91;;;24.03;85.83
29169;BME280;16219;42.864;23.360;2022-07-23T05:38:26;96207.44;;;23.91;87.86
29169;BME280;16219;42.864;23.360;2022-07-23T05:40:56;96203.59;;;23.96;87.55
29169;BME280;16219;42.864;23.360;2022-07-23T05:43:23;96197.44;;;23.81;89.86
29169;BME280;16219;42.864;23.360;2022-07-23T05:45:51;96210.53;;;23.65;91.33
29169;BME280;16219;42.864;23.360;2022-07-23T05:48:18;96200.13;;;23.49;94.21
29169;BME280;16219;42.864;23.360;2022-07-23T05:51:13;96174.72;;;23.32;98.19
29169;BME280;16219;42.864;23.360;2022-07-23T05:53:40;96198.97;;;23.50;96.28
29169;BME280;16219;42.864;23.360;2022-07-23T05:56:16;96198.97;;;23.54;95.50
29169;BME280;16219;42.864;23.360;2022-07-23T05:58:43;96177.78;;;23.49;94.04
29169;BME280;16219;42.864;23.360;2022-07-23T06:01:11;96202.84;;;23.67;96.55
29169;BME280;16219;42.864;23.360;2022-07-23T06:03:46;96194.75;;;23.78;94.39
29169;BME280;16219;42.864;23.360;2022-07-23T06:06:14;96195.91;;;23.87;91.99
29169;BME280;16219;42.864;23.360;2022-07-23T06:08:42;96187.41;;;24.00;95.26
29169;BME280;16219;42.864;23.360;2022-07-23T06:11:11;96193.56;;;24.18;94.85
29169;BME280;16219;42.864;23.360;2022-07-23T06:13:38;96194.28;;;24.33;93.20
29169;BME280;16219;42.864;23.360;2022-07-23T06:16:06;96186.97;;;24.48;91.03
29169;BME280;16219;42.864;23.360;2022-07-23T06:18:33;96177.69;;;24.49;91.88
29169;BME280;16219;42.864;23.360;2022-07-23T06:21:00;96183.44;;;24.58;89.25
29169;BME280;16219;42.864;23.360;2022-07-23T06:23:29;96174.22;;;24.52;87.62
29169;BME280;16219;42.864;23.360;2022-07-23T06:25:56;96179.53;;;24.73;89.90
29169;BME280;16219;42.864;23.360;2022-07-23T06:28:24;96187.13;;;24.92;88.23
29169;BME280;16219;42.864;23.360;2022-07-23T06:30:51;96138.88;;;25.02;85.68
29169;BME280;16219;42.864;23.360;2022-07-23T06:33:18;96143.81;;;25.17;84.10
29169;BME280;16219;42.864;23.360;2022-07-23T06:35:46;96173.28;;;25.50;80.53
29169;BME280;16219;42.864;23.360;2022-07-23T06:38:13;96177.31;;;25.79;87.72
29169;BME280;16219;42.864;23.360;2022-07-23T06:40:42;96172.00;;;26.10;80.56
29169;BME280;16219;42.864;23.360;2022-07-23T06:43:11;96159.91;;;26.22;73.07
29169;BME280;16219;42.864;23.360;2022-07-23T06:45:38;96165.28;;;26.25;73.90
29169;BME280;16219;42.864;23.360;2022-07-23T06:48:05;96147.22;;;26.15;72.95
29169;BME280;16219;42.864;23.360;2022-07-23T06:50:33;96157.34;;;26.45;74.98
29169;BME280;16219;42.864;23.360;2022-07-23T06:53:01;96146.38;;;26.59;71.03
29169;BME280;16219;42.864;23.360;2022-07-23T06:55:28;96144.66;;;26.73;68.28
29169;BME280;16219;42.864;23.360;2022-07-23T06:57:56;96139.53;;;26.78;70.07
29169;BME280;16219;42.864;23.360;2022-07-23T07:00:23;96141.28;;;26.92;69.42
29169;BME280;16219;42.864;23.360;2022-07-23T07:02:53;96146.81;;;27.12;65.29
29169;BME280;16219;42.864;23.360;2022-07-23T07:05:20;96148.22;;;27.24;63.85
29169;BME280;16219;42.864;23.360;2022-07-23T07:07:48;96142.94;;;27.40;60.29
29169;BME280;16219;42.864;23.360;2022-07-23T07:10:15;96142.97;;;27.60;60.37
29169;BME280;16219;42.864;23.360;2022-07-23T07:12:43;96112.75;;;27.61;64.25
29169;BME280;16219;42.864;23.360;2022-07-23T07:15:12;96138.44;;;28.00;59.28
29169;BME280;16219;42.864;23.360;2022-07-23T07:17:40;96099.13;;;27.88;56.56
29169;BME280;16219;42.864;23.360;2022-07-23T07:20:09;96128.28;;;28.24;58.63
29169;BME280;16219;42.864;23.360;2022-07-23T07:22:37;96131.75;;;28.25;63.57
29169;BME280;16219;42.864;23.360;2022-07-23T07:25:05;96128.16;;;28.51;69.93
29169;BME280;16219;42.864;23.360;2022-07-23T07:27:32;96123.38;;;28.75;69.26
29169;BME280;16219;42.864;23.360;2022-07-23T07:29:59;96120.69;;;28.92;72.17
29169;BME280;16219;42.864;23.360;2022-07-23T07:32:28;96128.13;;;29.07;62.25
29169;BME280;16219;42.864;23.360;2022-07-23T07:34:58;96116.78;;;29.29;63.49
29169;BME280;16219;42.864;23.360;2022-07-23T07:37:25;96108.69;;;29.42;54.50
29169;BME280;16219;42.864;23.360;2022-07-23T07:39:52;96100.69;;;29.51;59.43
29169;BME280;16219;42.864;23.360;2022-07-23T07:42:19;96108.16;;;29.79;55.83
29169;BME280;16219;42.864;23.360;2022-07-23T07:44:47;96106.47;;;29.98;52.72
29169;BME280;16219;42.864;23.360;2022-07-23T07:47:14;96107.13;;;30.19;50.41
29169;BME280;16219;42.864;23.360;2022-07-23T07:49:44;96103.91;;;30.36;51.70
29169;BME280;16219;42.864;23.360;2022-07-23T07:52:11;96102.84;;;30.47;49.98
29169;BME280;16219;42.864;23.360;2022-07-23T07:54:38;96104.59;;;30.66;51.21
29169;BME280;16219;42.864;23.360;2022-07-23T07:57:05;96030.47;;;30.20;48.69
29169;BME280;16219;42.864;23.360;2022-07-23T07:59:32;96095.06;;;30.74;49.66
29169;BME280;16219;42.864;23.360;2022-07-23T08:02:00;96094.84;;;30.94;49.99
29169;BME280;16219;42.864;23.360;2022-07-23T08:04:27;96096.81;;;31.06;47.39
29169;BME280;16219;42.864;23.360;2022-07-23T08:06:55;96094.06;;;31.19;47.85
29169;BME280;16219;42.864;23.360;2022-07-23T08:09:22;96091.66;;;31.21;46.18
29169;BME280;16219;42.864;23.360;2022-07-23T08:11:49;96086.75;;;31.16;46.34
29169;BME280;16219;42.864;23.360;2022-07-23T08:14:17;96080.19;;;31.26;46.47
29169;BME280;16219;42.864;23.360;2022-07-23T08:16:45;96091.88;;;31.40;45.96
29169;BME280;16219;42.864;23.360;2022-07-23T08:19:12;96088.34;;;31.52;48.11
29169;BME280;16219;42.864;23.360;2022-07-23T08:21:39;96054.44;;;31.53;44.96
29169;BME280;16219;42.864;23.360;2022-07-23T08:24:08;96043.19;;;31.51;45.61
29169;BME280;16219;42.864;23.360;2022-07-23T08:26:35;96078.63;;;31.85;44.07
29169;BME280;16219;42.864;23.360;2022-07-23T08:29:02;96075.72;;;32.02;43.58
29169;BME280;16219;42.864;23.360;2022-07-23T08:31:29;96063.88;;;31.96;45.96
29169;BME280;16219;42.864;23.360;2022-07-23T08:33:58;96068.03;;;32.31;46.27
29169;BME280;16219;42.864;23.360;2022-07-23T08:36:26;96066.63;;;32.49;43.76
29169;BME280;16219;42.864;23.360;2022-07-23T08:38:54;96032.88;;;32.33;43.44
29169;BME280;16219;42.864;23.360;2022-07-23T08:41:23;96066.88;;;32.64;42.19
29169;BME280;16219;42.864;23.360;2022-07-23T08:43:50;96074.34;;;32.72;41.94
29169;BME280;16219;42.864;23.360;2022-07-23T08:46:19;96037.56;;;32.64;43.27
29169;BME280;16219;42.864;23.360;2022-07-23T08:48:48;96059.47;;;32.73;41.98
29169;BME280;16219;42.864;23.360;2022-07-23T08:51:15;96055.63;;;32.93;42.29
29169;BME280;16219;42.864;23.360;2022-07-23T08:53:44;96049.56;;;33.07;42.92
29169;BME280;16219;42.864;23.360;2022-07-23T08:56:11;96034.66;;;32.99;40.03
29169;BME280;16219;42.864;23.360;2022-07-23T08:58:39;96040.47;;;33.01;40.67
29169;BME280;16219;42.864;23.360;2022-07-23T09:01:07;96045.34;;;33.15;40.29
29169;BME280;16219;42.864;23.360;2022-07-23T09:03:35;96045.34;;;33.33;40.70
29169;BME280;16219;42.864;23.360;2022-07-23T09:06:04;96044.81;;;33.57;39.62
29169;BME280;16219;42.864;23.360;2022-07-23T09:08:37;96045.88;;;33.78;39.94
29169;BME280;16219;42.864;23.360;2022-07-23T09:11:05;96049.19;;;33.91;39.09
29169;BME280;16219;42.864;23.360;2022-07-23T09:13:36;96036.28;;;33.82;37.90
29169;BME280;16219;42.864;23.360;2022-07-23T09:16:07;96041.16;;;33.97;37.30
29169;BME280;16219;42.864;23.360;2022-07-23T09:18:39;96032.31;;;34.02;37.94
29169;BME280;16219;42.864;23.360;2022-07-23T09:21:12;96028.38;;;34.03;37.29
29169;BME280;16219;42.864;23.360;2022-07-23T09:23:42;96024.69;;;34.15;36.93
29169;BME280;16219;42.864;23.360;2022-07-23T09:26:31;96033.50;;;34.28;36.21
29169;BME280;16219;42.864;23.360;2022-07-23T09:29:20;96040.50;;;34.29;36.32
29169;BME280;16219;42.864;23.360;2022-07-23T09:31:50;96029.50;;;34.39;36.11
29169;BME280;16219;42.864;23.360;2022-07-23T09:34:20;96027.66;;;34.54;38.18
29169;BME280;16219;42.864;23.360;2022-07-23T09:36:48;96023.06;;;34.60;37.13
29169;BME280;16219;42.864;23.360;2022-07-23T09:39:25;96014.47;;;34.76;37.15
29169;BME280;16219;42.864;23.360;2022-07-23T09:41:53;96013.16;;;34.87;36.47
29169;BME280;16219;42.864;23.360;2022-07-23T09:44:21;96012.03;;;34.69;33.41
29169;BME280;16219;42.864;23.360;2022-07-23T09:46:51;96011.13;;;34.72;34.37
29169;BME280;16219;42.864;23.360;2022-07-23T09:49:24;96010.91;;;34.85;34.44
29169;BME280;16219;42.864;23.360;2022-07-23T09:51:53;96003.38;;;34.95;33.16
29169;BME280;16219;42.864;23.360;2022-07-23T09:54:23;96008.22;;;35.09;32.65
29169;BME280;16219;42.864;23.360;2022-07-23T09:56:52;96005.09;;;35.16;32.51
29169;BME280;16219;42.864;23.360;2022-07-23T09:59:23;95993.09;;;35.14;32.56
29169;BME280;16219;42.864;23.360;2022-07-23T10:01:53;95980.31;;;35.11;32.90
29169;BME280;16219;42.864;23.360;2022-07-23T10:04:23;95993.03;;;35.23;33.65
29169;BME280;16219;42.864;23.360;2022-07-23T10:07:17;95988.28;;;35.23;33.36
29169;BME280;16219;42.864;23.360;2022-07-23T10:10:08;95982.47;;;35.30;32.49
29169;BME280;16219;42.864;23.360;2022-07-23T10:12:55;95978.84;;;35.24;31.36
29169;BME280;16219;42.864;23.360;2022-07-23T10:15:50;95976.75;;;35.19;34.30
29169;BME280;16219;42.864;23.360;2022-07-23T10:18:19;95978.66;;;35.28;32.51
29169;BME280;16219;42.864;23.360;2022-07-23T10:20:47;95974.22;;;35.30;32.13
29169;BME280;16219;42.864;23.360;2022-07-23T10:23:22;95972.75;;;35.20;32.71
29169;BME280;16219;42.864;23.360;2022-07-23T10:25:56;95972.13;;;35.25;31.18
29169;BME280;16219;42.864;23.360;2022-07-23T10:28:47;95960.44;;;35.40;32.12
29169;BME280;16219;42.864;23.360;2022-07-23T10:31:28;95968.63;;;35.64;31.72
29169;BME280;16219;42.864;23.360;2022-07-23T10:34:04;95955.47;;;35.68;31.95
29169;BME280;16219;42.864;23.360;2022-07-23T10:36:40;95963.25;;;35.84;31.60
29169;BME280;16219;42.864;23.360;2022-07-23T10:39:15;95920.34;;;35.57;29.79
29169;BME280;16219;42.864;23.360;2022-07-23T10:41:45;95959.94;;;35.95;30.58
29169;BME280;16219;42.864;23.360;2022-07-23T10:44:14;95953.19;;;35.96;31.60
29169;BME280;16219;42.864;23.360;2022-07-23T10:46:56;95946.41;;;36.06;29.62
29169;BME280;16219;42.864;23.360;2022-07-23T10:49:42;95941.00;;;36.12;29.87
29169;BME280;16219;42.864;23.360;2022-07-23T10:52:22;95933.97;;;35.96;29.45
29169;BME280;16219;42.864;23.360;2022-07-23T10:54:51;95942.22;;;35.96;29.17
29169;BME280;16219;42.864;23.360;2022-07-23T10:57:20;95925.28;;;35.97;30.03
29169;BME280;16219;42.864;23.360;2022-07-23T11:00:15;95926.22;;;36.09;30.56
29169;BME280;16219;42.864;23.360;2022-07-23T11:02:45;95922.84;;;36.35;29.53
29169;BME280;16219;42.864;23.360;2022-07-23T11:05:17;95919.44;;;36.40;30.07
29169;BME280;16219;42.864;23.360;2022-07-23T11:10:53;95913.56;;;36.47;29.54
29169;BME280;16219;42.864;23.360;2022-07-23T11:13:48;95909.00;;;36.44;29.30
29169;BME280;16219;42.864;23.360;2022-07-23T11:16:24;95904.63;;;36.52;28.97
29169;BME280;16219;42.864;23.360;2022-07-23T11:19:07;95901.50;;;36.79;30.71
29169;BME280;16219;42.864;23.360;2022-07-23T11:21:44;95906.13;;;37.09;30.14
29169;BME280;16219;42.864;23.360;2022-07-23T11:24:13;95901.97;;;37.19;28.91
29169;BME280;16219;42.864;23.360;2022-07-23T11:26:43;95914.53;;;37.25;30.22
29169;BME280;16219;42.864;23.360;2022-07-23T11:29:39;95898.88;;;36.91;28.00
29169;BME280;16219;42.864;23.360;2022-07-23T11:32:17;95888.69;;;36.56;29.10
29169;BME280;16219;42.864;23.360;2022-07-23T11:34:46;95873.97;;;36.39;29.25
29169;BME280;16219;42.864;23.360;2022-07-23T11:37:29;95833.06;;;36.26;29.46
29169;BME280;16219;42.864;23.360;2022-07-23T11:39:57;95883.47;;;36.78;30.68
29169;BME280;16219;42.864;23.360;2022-07-23T11:42:25;95882.25;;;37.00;30.21
29169;BME280;16219;42.864;23.360;2022-07-23T11:44:53;95877.63;;;37.12;29.57
29169;BME280;16219;42.864;23.360;2022-07-23T11:47:23;95862.88;;;36.89;28.53
29169;BME280;16219;42.864;23.360;2022-07-23T11:49:55;95877.63;;;36.91;28.93
29169;BME280;16219;42.864;23.360;2022-07-23T11:52:25;95862.66;;;36.72;29.23
29169;BME280;16219;42.864;23.360;2022-07-23T11:54:54;95876.72;;;36.39;29.24
29169;BME280;16219;42.864;23.360;2022-07-23T11:57:25;95873.09;;;36.12;29.31
29169;BME280;16219;42.864;23.360;2022-07-23T11:59:55;95872.34;;;35.97;30.71
29169;BME280;16219;42.864;23.360;2022-07-23T12:02:24;95869.81;;;35.78;28.60
29169;BME280;16219;42.864;23.360;2022-07-23T12:04:52;95871.69;;;35.87;29.10
29169;BME280;16219;42.864;23.360;2022-07-23T12:07:29;95868.31;;;36.27;30.38
29169;BME280;16219;42.864;23.360;2022-07-23T12:09:57;95872.69;;;36.19;29.46
29169;BME280;16219;42.864;23.360;2022-07-23T12:12:26;95868.94;;;35.87;27.31
29169;BME280;16219;42.864;23.360;2022-07-23T12:14:55;95870.38;;;35.83;28.98
29169;BME280;16219;42.864;23.360;2022-07-23T12:17:28;95864.44;;;35.69;29.60
29169;BME280;16219;42.864;23.360;2022-07-23T12:19:57;95871.63;;;35.52;32.06
29169;BME280;16219;42.864;23.360;2022-07-23T12:22:34;95860.78;;;35.34;30.31
29169;BME280;16219;42.864;23.360;2022-07-23T12:25:04;95867.25;;;35.30;30.96
29169;BME280;16219;42.864;23.360;2022-07-23T12:27:32;95865.53;;;35.18;32.36
29169;BME280;16219;42.864;23.360;2022-07-23T12:30:23;95873.91;;;35.00;32.28
29169;BME280;16219;42.864;23.360;2022-07-23T12:32:53;95864.88;;;34.85;33.94
29169;BME280;16219;42.864;23.360;2022-07-23T12:35:21;95856.72;;;34.75;34.72
29169;BME280;16219;42.864;23.360;2022-07-23T12:37:51;95850.84;;;34.68;33.87
29169;BME280;16219;42.864;23.360;2022-07-23T12:40:29;95857.78;;;34.54;36.70
29169;BME280;16219;42.864;23.360;2022-07-23T12:42:58;95859.63;;;34.48;38.21
29169;BME280;16219;42.864;23.360;2022-07-23T12:45:27;95860.41;;;34.39;38.06
29169;BME280;16219;42.864;23.360;2022-07-23T12:48:03;95850.28;;;34.30;36.65
29169;BME280;16219;42.864;23.360;2022-07-23T12:50:40;95842.88;;;34.22;34.00
29169;BME280;16219;42.864;23.360;2022-07-23T12:53:14;95822.59;;;34.04;42.13
29169;BME280;16219;42.864;23.360;2022-07-23T12:55:43;95840.78;;;34.17;43.86
29169;BME280;16219;42.864;23.360;2022-07-23T12:58:13;95835.75;;;34.15;37.51
29169;BME280;16219;42.864;23.360;2022-07-23T13:01:03;95848.06;;;34.44;43.68
29169;BME280;16219;42.864;23.360;2022-07-23T13:03:34;95845.34;;;34.68;43.49